createdAt,value
2017-03-14T00:00:41.502Z,21.95
2017-03-14T00:01:41.454Z,22
2017-03-14T00:02:41.377Z,21.96
2017-03-14T00:03:41.323Z,22.04
2017-03-14T00:04:40.526Z,22.06
2017-03-14T00:05:41.190Z,22
2017-03-14T00:06:41.125Z,22.02
2017-03-14T00:07:41.066Z,22
2017-03-14T00:08:41.002Z,22.02
2017-03-14T00:09:40.933Z,21.96
2017-03-14T00:10:40.874Z,22.04
2017-03-14T00:11:40.808Z,21.99
2017-03-14T00:12:40.748Z,22.02
2017-03-14T00:13:40.684Z,22
2017-03-14T00:14:40.909Z,21.96
2017-03-14T00:15:40.845Z,22.06
2017-03-14T00:16:40.493Z,22.04
2017-03-14T00:17:40.432Z,22.02
2017-03-14T00:18:40.665Z,22.07
2017-03-14T00:19:39.767Z,22.02
2017-03-14T00:20:40.246Z,21.99
2017-03-14T00:21:39.792Z,21.98
2017-03-14T00:22:40.115Z,22.02
2017-03-14T00:23:40.056Z,22
2017-03-14T00:24:39.993Z,21.99
2017-03-14T00:25:39.932Z,22
2017-03-14T00:26:39.865Z,22.04
2017-03-14T00:27:39.807Z,22.04
2017-03-14T00:28:39.741Z,22.02
2017-03-14T00:29:39.675Z,22.07
2017-03-14T00:30:39.613Z,21.99
2017-03-14T00:31:39.556Z,22
2017-03-14T00:32:39.490Z,22
2017-03-14T00:33:39.426Z,22.02
2017-03-14T00:34:39.362Z,22.04
2017-03-14T00:35:39.313Z,21.96
2017-03-14T00:36:39.527Z,21.99
2017-03-14T00:37:39.177Z,21.99
2017-03-14T00:38:39.406Z,21.92
2017-03-14T00:39:39.342Z,21.93
2017-03-14T00:40:38.988Z,21.96
2017-03-14T00:41:38.934Z,21.93
2017-03-14T00:42:38.858Z,22.06
2017-03-14T00:43:39.086Z,21.98
2017-03-14T00:44:39.022Z,21.95
2017-03-14T00:45:38.672Z,21.98
2017-03-14T00:46:38.607Z,21.92
2017-03-14T00:47:38.149Z,21.99
2017-03-14T00:48:38.477Z,21.93
2017-03-14T00:49:38.419Z,21.92
2017-03-14T00:50:37.963Z,21.92
2017-03-14T00:51:38.302Z,21.95
2017-03-14T00:52:38.516Z,21.95
2017-03-14T00:53:38.167Z,21.92
2017-03-14T00:54:38.110Z,22.04
2017-03-14T00:55:38.040Z,21.96
2017-03-14T00:56:37.975Z,21.95
2017-03-14T00:57:37.913Z,22.02
2017-03-14T00:58:37.860Z,21.93
2017-03-14T00:59:37.401Z,21.99
2017-03-14T01:02:44.943Z,21.99
2017-03-14T01:02:55.464Z,21.93
2017-03-14T01:03:55.399Z,21.93
2017-03-14T01:04:55.368Z,21.92
2017-03-14T01:05:55.272Z,21.95
2017-03-14T01:06:55.211Z,21.96
2017-03-14T01:07:55.147Z,21.96
2017-03-14T01:08:55.082Z,21.99
2017-03-14T01:09:55.023Z,21.99
2017-03-14T01:10:54.956Z,21.95
2017-03-14T01:11:54.903Z,21.95
2017-03-14T01:12:54.834Z,21.96
2017-03-14T01:13:54.765Z,21.92
2017-03-14T01:14:54.703Z,21.99
2017-03-14T01:15:54.638Z,21.92
2017-03-14T01:16:54.192Z,21.95
2017-03-14T01:17:53.743Z,21.92
2017-03-14T01:18:54.458Z,22
2017-03-14T01:19:54.005Z,21.89
2017-03-14T01:20:54.330Z,21.91
2017-03-14T01:21:54.266Z,21.93
2017-03-14T01:22:54.206Z,21.95
2017-03-14T01:23:53.750Z,21.99
2017-03-14T01:24:54.076Z,21.99
2017-03-14T01:25:54.012Z,21.98
2017-03-14T01:26:53.951Z,21.92
2017-03-14T01:27:53.895Z,21.93
2017-03-14T01:28:53.825Z,21.91
2017-03-14T01:29:53.760Z,21.95
2017-03-14T01:30:53.699Z,21.98
2017-03-14T01:31:53.267Z,21.99
2017-03-14T01:32:53.570Z,21.93
2017-03-14T01:33:53.143Z,21.95
2017-03-14T01:34:53.444Z,21.89
2017-03-14T01:35:52.994Z,21.98
2017-03-14T01:36:53.319Z,21.95
2017-03-14T01:37:53.258Z,21.98
2017-03-14T01:38:53.193Z,21.96
2017-03-14T01:39:53.135Z,21.92
2017-03-14T01:40:53.070Z,21.96
2017-03-14T01:41:53.001Z,21.96
2017-03-14T01:42:52.973Z,21.95
2017-03-14T01:43:52.493Z,21.95
2017-03-14T01:44:52.811Z,21.93
2017-03-14T01:45:52.747Z,21.93
2017-03-14T01:46:52.685Z,21.91
2017-03-14T01:47:52.622Z,21.96
2017-03-14T01:48:52.561Z,21.91
2017-03-14T01:49:52.498Z,21.92
2017-03-14T01:50:52.435Z,21.92
2017-03-14T01:51:51.986Z,21.95
2017-03-14T01:52:52.314Z,21.98
2017-03-14T01:53:52.242Z,21.93
2017-03-14T01:54:51.799Z,21.95
2017-03-14T01:55:52.118Z,21.98
2017-03-14T01:56:52.055Z,21.93
2017-03-14T01:57:51.998Z,22.07
2017-03-14T01:58:51.932Z,22.02
2017-03-14T01:59:51.868Z,21.95
2017-03-14T02:00:51.905Z,21.89
2017-03-14T02:01:51.743Z,21.99
2017-03-14T02:02:51.680Z,21.93
2017-03-14T02:03:51.614Z,21.95
2017-03-14T02:04:51.164Z,21.92
2017-03-14T02:05:51.101Z,21.95
2017-03-14T02:06:51.423Z,21.89
2017-03-14T02:07:51.363Z,21.93
2017-03-14T02:08:51.307Z,21.92
2017-03-14T02:09:51.244Z,21.98
2017-03-14T02:10:51.172Z,21.99
2017-03-14T02:11:51.111Z,21.95
2017-03-14T02:12:51.051Z,21.96
2017-03-14T02:13:50.604Z,21.93
2017-03-14T02:14:50.922Z,21.96
2017-03-14T02:15:50.863Z,21.92
2017-03-14T02:16:50.410Z,21.93
2017-03-14T02:17:50.734Z,21.99
2017-03-14T02:18:50.682Z,21.92
2017-03-14T02:19:50.230Z,21.92
2017-03-14T02:20:50.555Z,21.92
2017-03-14T02:21:50.489Z,21.93
2017-03-14T02:22:50.440Z,21.95
2017-03-14T02:23:49.969Z,21.92
2017-03-14T02:24:50.308Z,21.85
2017-03-14T02:25:49.866Z,21.89
2017-03-14T02:26:49.797Z,21.93
2017-03-14T02:27:50.104Z,21.95
2017-03-14T02:28:50.042Z,21.95
2017-03-14T02:29:49.594Z,21.96
2017-03-14T02:30:49.928Z,21.96
2017-03-14T02:31:49.849Z,22
2017-03-14T02:32:49.784Z,21.89
2017-03-14T02:33:49.335Z,21.95
2017-03-14T02:34:49.672Z,21.95
2017-03-14T02:35:49.600Z,21.93
2017-03-14T02:36:49.537Z,21.98
2017-03-14T02:37:49.486Z,21.91
2017-03-14T02:38:49.423Z,21.92
2017-03-14T02:39:49.344Z,21.92
2017-03-14T02:40:49.284Z,21.95
2017-03-14T02:41:49.222Z,21.91
2017-03-14T02:42:49.161Z,21.91
2017-03-14T02:43:49.094Z,21.95
2017-03-14T02:44:49.029Z,21.95
2017-03-14T02:45:48.971Z,21.98
2017-03-14T02:46:48.902Z,22
2017-03-14T02:47:48.841Z,21.89
2017-03-14T02:48:48.780Z,21.92
2017-03-14T02:49:48.716Z,21.89
2017-03-14T02:50:48.651Z,21.96
2017-03-14T02:51:48.201Z,21.89
2017-03-14T02:52:48.527Z,21.88
2017-03-14T02:53:48.463Z,21.93
2017-03-14T02:54:48.401Z,21.95
2017-03-14T02:55:47.956Z,21.92
2017-03-14T02:56:48.273Z,21.96
2017-03-14T02:57:48.211Z,21.98
2017-03-14T02:58:48.146Z,21.91
2017-03-14T02:59:48.086Z,21.92
2017-03-14T03:00:48.018Z,21.93
2017-03-14T03:01:47.573Z,21.92
2017-03-14T03:02:47.894Z,21.92
2017-03-14T03:03:47.832Z,21.91
2017-03-14T03:04:47.773Z,21.92
2017-03-14T03:05:47.714Z,21.92
2017-03-14T03:06:47.650Z,21.93
2017-03-14T03:07:47.581Z,21.96
2017-03-14T03:08:47.525Z,21.95
2017-03-14T03:09:47.453Z,21.95
2017-03-14T03:10:47.398Z,21.92
2017-03-14T03:11:47.325Z,21.91
2017-03-14T03:12:47.264Z,21.92
2017-03-14T03:13:47.198Z,21.91
2017-03-14T03:14:47.141Z,21.92
2017-03-14T03:15:47.087Z,21.95
2017-03-14T03:16:47.016Z,21.93
2017-03-14T03:17:46.951Z,21.91
2017-03-14T03:18:46.890Z,21.91
2017-03-14T03:19:46.820Z,21.89
2017-03-14T03:20:46.763Z,21.82
2017-03-14T03:21:46.696Z,21.95
2017-03-14T03:22:46.633Z,21.92
2017-03-14T03:23:46.572Z,21.91
2017-03-14T03:24:46.518Z,21.92
2017-03-14T03:25:46.444Z,21.89
2017-03-14T03:26:46.381Z,21.91
2017-03-14T03:27:46.319Z,21.96
2017-03-14T03:28:46.255Z,21.92
2017-03-14T03:29:46.194Z,21.92
2017-03-14T03:30:46.135Z,21.96
2017-03-14T03:31:46.064Z,21.83
2017-03-14T03:32:46.004Z,21.92
2017-03-14T03:33:45.556Z,21.92
2017-03-14T03:34:45.878Z,21.93
2017-03-14T03:35:45.814Z,21.93
2017-03-14T03:36:45.749Z,21.93
2017-03-14T03:37:45.686Z,21.89
2017-03-14T03:38:45.622Z,21.92
2017-03-14T03:39:45.563Z,21.89
2017-03-14T03:40:45.111Z,21.93
2017-03-14T03:41:45.445Z,21.91
2017-03-14T03:42:45.374Z,21.89
2017-03-14T03:43:45.316Z,21.91
2017-03-14T03:44:44.858Z,21.88
2017-03-14T03:45:45.182Z,21.91
2017-03-14T03:46:45.118Z,21.88
2017-03-14T03:47:44.671Z,21.88
2017-03-14T03:48:45.022Z,21.96
2017-03-14T03:49:44.932Z,21.8
2017-03-14T03:50:44.891Z,21.98
2017-03-14T03:51:44.807Z,21.92
2017-03-14T03:52:44.740Z,21.92
2017-03-14T03:53:44.677Z,21.8
2017-03-14T03:54:44.615Z,21.89
2017-03-14T03:55:44.553Z,21.82
2017-03-14T03:56:44.491Z,21.88
2017-03-14T03:57:44.426Z,21.82
2017-03-14T03:58:44.365Z,21.76
2017-03-14T03:59:44.303Z,21.77
2017-03-14T04:00:44.231Z,21.92
2017-03-14T04:01:44.174Z,21.89
2017-03-14T04:02:44.107Z,21.77
2017-03-14T04:03:44.048Z,21.8
2017-03-14T04:04:43.983Z,21.82
2017-03-14T04:05:43.922Z,21.67
2017-03-14T04:06:43.858Z,21.8
2017-03-14T04:07:43.797Z,21.69
2017-03-14T04:08:43.734Z,21.73
2017-03-14T04:09:43.667Z,21.67
2017-03-14T04:10:43.603Z,21.67
2017-03-14T04:11:43.559Z,21.69
2017-03-14T04:12:43.481Z,21.69
2017-03-14T04:13:43.416Z,21.67
2017-03-14T04:14:43.349Z,21.7
2017-03-14T04:15:43.292Z,21.75
2017-03-14T04:16:43.230Z,21.7
2017-03-14T04:17:43.164Z,21.75
2017-03-14T04:18:42.717Z,21.76
2017-03-14T04:19:43.044Z,21.69
2017-03-14T04:20:42.972Z,21.76
2017-03-14T04:21:42.908Z,21.73
2017-03-14T04:22:42.458Z,21.77
2017-03-14T04:23:42.794Z,21.73
2017-03-14T04:24:42.716Z,21.76
2017-03-14T04:25:42.655Z,21.75
2017-03-14T04:26:42.593Z,21.75
2017-03-14T04:27:42.539Z,21.64
2017-03-14T04:28:42.464Z,21.77
2017-03-14T04:29:42.416Z,21.77
2017-03-14T04:30:42.344Z,21.8
2017-03-14T04:31:42.280Z,21.62
2017-03-14T04:32:41.830Z,21.66
2017-03-14T04:33:41.765Z,21.69
2017-03-14T04:34:41.699Z,21.7
2017-03-14T04:35:42.025Z,21.75
2017-03-14T04:36:41.957Z,21.73
2017-03-14T04:37:41.902Z,21.76
2017-03-14T04:38:41.836Z,21.66
2017-03-14T04:39:41.384Z,21.64
2017-03-14T04:40:41.708Z,21.76
2017-03-14T04:41:41.259Z,21.57
2017-03-14T04:42:41.583Z,21.66
2017-03-14T04:43:41.522Z,21.67
2017-03-14T04:44:41.461Z,21.67
2017-03-14T04:45:41.492Z,21.72
2017-03-14T04:46:41.326Z,21.64
2017-03-14T04:47:41.266Z,21.62
2017-03-14T04:48:41.201Z,21.64
2017-03-14T04:49:41.143Z,21.73
2017-03-14T04:50:41.375Z,21.64
2017-03-14T04:51:41.011Z,21.66
2017-03-14T04:52:40.949Z,21.7
2017-03-14T04:53:40.504Z,21.66
2017-03-14T04:54:40.822Z,21.66
2017-03-14T04:55:40.759Z,21.67
2017-03-14T04:56:40.695Z,21.72
2017-03-14T04:57:40.633Z,21.66
2017-03-14T04:58:40.572Z,21.62
2017-03-14T04:59:40.507Z,21.7
2017-03-14T05:00:40.439Z,21.62
2017-03-14T05:01:40.384Z,21.69
2017-03-14T05:02:40.323Z,21.69
2017-03-14T05:03:40.258Z,21.67
2017-03-14T05:04:39.807Z,21.75
2017-03-14T05:05:40.125Z,21.73
2017-03-14T05:06:40.064Z,21.64
2017-03-14T05:07:39.998Z,21.7
2017-03-14T05:08:39.935Z,21.72
2017-03-14T05:09:39.874Z,21.6
2017-03-14T05:10:39.811Z,21.61
2017-03-14T05:11:39.757Z,21.64
2017-03-14T05:12:39.684Z,21.52
2017-03-14T05:13:39.232Z,21.52
2017-03-14T05:14:39.554Z,21.61
2017-03-14T05:15:39.498Z,21.62
2017-03-14T05:16:39.428Z,21.54
2017-03-14T05:17:39.368Z,21.57
2017-03-14T05:18:39.301Z,21.48
2017-03-14T05:19:39.237Z,21.51
2017-03-14T05:20:39.173Z,21.45
2017-03-14T05:21:39.112Z,21.45
2017-03-14T05:22:38.663Z,21.5
2017-03-14T05:23:38.988Z,21.45
2017-03-14T05:24:38.920Z,21.46
2017-03-14T05:25:38.864Z,21.42
2017-03-14T05:26:38.795Z,21.43
2017-03-14T05:27:38.732Z,21.43
2017-03-14T05:28:38.670Z,21.39
2017-03-14T05:29:38.607Z,21.48
2017-03-14T05:30:38.163Z,21.48
2017-03-14T05:31:38.479Z,21.4
2017-03-14T05:32:38.415Z,21.43
2017-03-14T05:33:38.361Z,21.37
2017-03-14T05:34:38.288Z,21.36
2017-03-14T05:35:37.833Z,21.4
2017-03-14T05:36:38.161Z,21.4
2017-03-14T05:37:38.095Z,21.36
2017-03-14T05:38:37.646Z,21.4
2017-03-14T05:39:37.966Z,21.36
2017-03-14T05:40:37.915Z,21.37
2017-03-14T05:41:37.855Z,21.36
2017-03-14T05:42:37.777Z,21.4
2017-03-14T05:43:37.718Z,21.37
2017-03-14T05:44:37.656Z,21.37
2017-03-14T05:45:37.593Z,21.32
2017-03-14T05:46:37.527Z,21.35
2017-03-14T05:47:37.465Z,21.21
2017-03-14T05:48:37.405Z,21.35
2017-03-14T05:49:36.955Z,21.32
2017-03-14T05:50:37.279Z,21.33
2017-03-14T05:51:36.832Z,21.3
2017-03-14T05:52:37.147Z,21.3
2017-03-14T05:53:37.151Z,21.35
2017-03-14T05:54:37.031Z,21.27
2017-03-14T05:55:36.955Z,21.25
2017-03-14T05:56:36.920Z,21.32
2017-03-14T05:57:36.838Z,21.3
2017-03-14T05:58:36.817Z,21.32
2017-03-14T05:59:36.700Z,21.37
2017-03-14T06:00:36.642Z,21.37
2017-03-14T06:01:36.576Z,21.35
2017-03-14T06:02:36.514Z,21.35
2017-03-14T06:03:36.458Z,21.29
2017-03-14T06:04:36.387Z,21.37
2017-03-14T06:05:36.323Z,21.35
2017-03-14T06:06:36.266Z,21.32
2017-03-14T06:07:36.204Z,21.36
2017-03-14T06:08:35.747Z,21.39
2017-03-14T06:09:36.070Z,21.36
2017-03-14T06:10:36.002Z,21.35
2017-03-14T06:11:35.938Z,21.35
2017-03-14T06:12:35.889Z,21.35
2017-03-14T06:13:35.818Z,21.33
2017-03-14T06:14:35.380Z,21.36
2017-03-14T06:15:35.687Z,21.37
2017-03-14T06:16:35.626Z,21.36
2017-03-14T06:17:35.561Z,21.39
2017-03-14T06:18:35.500Z,21.37
2017-03-14T06:19:35.431Z,21.43
2017-03-14T06:20:35.375Z,21.37
2017-03-14T06:21:35.315Z,21.37
2017-03-14T06:22:35.252Z,21.43
2017-03-14T06:23:35.177Z,21.4
2017-03-14T06:24:35.115Z,21.4
2017-03-14T06:25:35.063Z,21.42
2017-03-14T06:26:34.988Z,21.39
2017-03-14T06:27:34.935Z,21.4
2017-03-14T06:28:34.862Z,21.45
2017-03-14T06:29:34.827Z,21.43
2017-03-14T06:30:34.733Z,21.5
2017-03-14T06:31:34.673Z,21.52
2017-03-14T06:32:34.612Z,21.45
2017-03-14T06:33:34.550Z,21.51
2017-03-14T06:34:34.484Z,21.61
2017-03-14T06:35:34.420Z,21.6
2017-03-14T06:36:34.359Z,21.62
2017-03-14T06:37:34.294Z,21.62
2017-03-14T06:38:34.229Z,21.52
2017-03-14T06:39:34.194Z,21.57
2017-03-14T06:40:34.102Z,21.58
2017-03-14T06:41:34.040Z,21.57
2017-03-14T06:42:33.979Z,21.64
2017-03-14T06:43:33.529Z,21.7
2017-03-14T06:44:33.863Z,21.64
2017-03-14T06:45:33.785Z,21.61
2017-03-14T06:46:33.724Z,21.66
2017-03-14T06:47:33.664Z,21.62
2017-03-14T06:48:33.601Z,21.62
2017-03-14T06:49:33.535Z,21.62
2017-03-14T06:50:33.471Z,21.73
2017-03-14T06:51:33.413Z,21.7
2017-03-14T06:52:33.345Z,21.75
2017-03-14T06:53:32.899Z,21.73
2017-03-14T06:54:33.223Z,21.64
2017-03-14T06:55:33.153Z,21.72
2017-03-14T06:56:33.090Z,21.77
2017-03-14T06:57:33.030Z,21.7
2017-03-14T06:58:32.966Z,21.7
2017-03-14T06:59:32.522Z,21.73
2017-03-14T07:00:32.452Z,21.76
2017-03-14T07:01:32.414Z,21.72
2017-03-14T07:02:32.712Z,21.8
2017-03-14T07:03:32.649Z,21.7
2017-03-14T07:04:32.200Z,21.67
2017-03-14T07:05:32.526Z,21.8
2017-03-14T07:06:32.461Z,21.77
2017-03-14T07:07:32.398Z,21.77
2017-03-14T07:08:32.344Z,21.83
2017-03-14T07:09:31.897Z,21.79
2017-03-14T07:10:32.212Z,21.82
2017-03-14T07:11:32.149Z,21.79
2017-03-14T07:12:32.083Z,21.77
2017-03-14T07:13:31.639Z,21.77
2017-03-14T07:14:31.961Z,21.77
2017-03-14T07:15:31.894Z,21.8
2017-03-14T07:16:31.445Z,21.77
2017-03-14T07:17:31.379Z,21.79
2017-03-14T07:18:31.705Z,21.83
2017-03-14T07:19:31.643Z,21.85
2017-03-14T07:20:31.578Z,21.91
2017-03-14T07:21:31.515Z,21.8
2017-03-14T07:22:31.491Z,21.77
2017-03-14T07:23:31.386Z,21.85
2017-03-14T07:24:31.328Z,21.92
2017-03-14T07:25:31.275Z,21.95
2017-03-14T07:26:31.206Z,21.85
2017-03-14T07:27:31.140Z,21.77
2017-03-14T07:28:31.093Z,21.83
2017-03-14T07:29:31.017Z,21.8
2017-03-14T07:30:30.955Z,21.82
2017-03-14T07:31:30.886Z,21.88
2017-03-14T07:32:30.827Z,21.88
2017-03-14T07:33:30.761Z,21.93
2017-03-14T07:34:30.704Z,21.93
2017-03-14T07:35:30.635Z,21.89
2017-03-14T07:36:30.193Z,21.96
2017-03-14T07:37:30.509Z,21.96
2017-03-14T07:38:30.064Z,21.83
2017-03-14T07:39:30.382Z,21.92
2017-03-14T07:40:30.320Z,21.95
2017-03-14T07:41:29.872Z,21.89
2017-03-14T07:42:30.192Z,21.88
2017-03-14T07:43:30.132Z,21.89
2017-03-14T07:44:29.694Z,21.92
2017-03-14T07:45:30.028Z,21.89
2017-03-14T07:46:29.554Z,21.95
2017-03-14T07:47:29.510Z,21.88
2017-03-14T07:48:29.449Z,21.88
2017-03-14T07:49:29.379Z,21.85
2017-03-14T07:50:29.693Z,21.89
2017-03-14T07:51:29.703Z,21.85
2017-03-14T07:52:29.567Z,21.82
2017-03-14T07:53:29.507Z,21.82
2017-03-14T07:54:29.439Z,21.8
2017-03-14T07:55:29.376Z,21.82
2017-03-14T07:56:28.929Z,21.89
2017-03-14T07:57:29.253Z,21.8
2017-03-14T07:58:29.191Z,21.77
2017-03-14T07:59:29.127Z,21.8
2017-03-14T08:00:29.066Z,21.79
2017-03-14T08:01:28.998Z,21.8
2017-03-14T08:02:28.563Z,21.77
2017-03-14T08:03:28.878Z,21.8
2017-03-14T08:04:28.838Z,21.79
2017-03-14T08:05:28.752Z,21.77
2017-03-14T08:06:28.683Z,21.88
2017-03-14T08:07:28.623Z,21.88
2017-03-14T08:08:28.560Z,21.77
2017-03-14T08:09:28.495Z,21.89
2017-03-14T08:10:28.430Z,21.77
2017-03-14T08:11:27.980Z,21.82
2017-03-14T08:12:28.307Z,21.85
2017-03-14T08:13:28.242Z,21.88
2017-03-14T08:14:28.180Z,21.89
2017-03-14T08:15:28.275Z,21.79
2017-03-14T08:16:28.322Z,21.85
2017-03-14T08:17:28.268Z,21.8
2017-03-14T08:18:27.972Z,21.82
2017-03-14T08:19:28.083Z,21.83
2017-03-14T08:20:28.232Z,21.85
2017-03-14T08:21:27.945Z,21.76
2017-03-14T08:22:27.925Z,21.88
2017-03-14T08:23:27.616Z,21.79
2017-03-14T08:24:27.558Z,21.89
2017-03-14T08:25:27.100Z,21.89
2017-03-14T08:26:27.436Z,21.91
2017-03-14T08:27:27.369Z,21.82
2017-03-14T08:28:27.320Z,21.89
2017-03-14T08:29:27.245Z,21.89
2017-03-14T08:30:27.170Z,21.75
2017-03-14T08:31:27.108Z,21.77
2017-03-14T08:32:26.660Z,21.85
2017-03-14T08:33:27.018Z,21.77
2017-03-14T08:34:26.921Z,21.85
2017-03-14T08:35:26.957Z,21.85
2017-03-14T08:36:26.793Z,21.85
2017-03-14T08:37:26.749Z,21.88
2017-03-14T08:38:26.671Z,21.89
2017-03-14T08:39:26.220Z,21.85
2017-03-14T08:40:26.993Z,21.99
2017-03-14T08:41:26.481Z,21.95
2017-03-14T08:42:26.422Z,21.98
2017-03-14T08:43:26.361Z,21.99
2017-03-14T08:44:26.296Z,22.04
2017-03-14T08:45:26.228Z,22.02
2017-03-14T08:46:26.169Z,22
2017-03-14T08:47:26.108Z,22.1
2017-03-14T08:48:26.039Z,22.08
2017-03-14T08:49:25.972Z,22.13
2017-03-14T08:50:25.909Z,22.22
2017-03-14T08:51:25.854Z,22.17
2017-03-14T08:52:25.406Z,22.17
2017-03-14T08:53:25.731Z,22.15
2017-03-14T08:54:25.280Z,22.28
2017-03-14T08:55:25.607Z,22.23
2017-03-14T08:56:25.536Z,22.28
2017-03-14T08:57:25.472Z,22.23
2017-03-14T08:58:25.021Z,22.33
2017-03-14T08:59:25.343Z,22.38
2017-03-14T09:00:25.286Z,22.35
2017-03-14T09:01:24.842Z,22.38
2017-03-14T09:02:25.155Z,22.33
2017-03-14T09:03:24.715Z,22.36
2017-03-14T09:04:25.053Z,22.38
2017-03-14T09:05:24.969Z,22.41
2017-03-14T09:06:24.906Z,22.51
2017-03-14T09:07:24.841Z,22.51
2017-03-14T09:08:24.783Z,22.44
2017-03-14T09:09:24.732Z,22.54
2017-03-14T09:10:24.268Z,22.57
2017-03-14T09:11:24.591Z,22.53
2017-03-14T09:12:24.142Z,22.57
2017-03-14T09:13:24.468Z,22.62
2017-03-14T09:14:24.025Z,22.65
2017-03-14T09:15:23.961Z,22.55
2017-03-14T09:16:23.894Z,22.63
2017-03-14T09:17:24.222Z,22.65
2017-03-14T09:18:23.773Z,22.62
2017-03-14T09:19:24.099Z,22.72
2017-03-14T09:20:23.646Z,22.78
2017-03-14T09:21:24.015Z,22.73
2017-03-14T09:22:23.940Z,22.69
2017-03-14T09:23:23.845Z,22.84
2017-03-14T09:24:23.784Z,22.75
2017-03-14T09:25:23.718Z,22.7
2017-03-14T09:26:23.689Z,22.83
2017-03-14T09:27:23.592Z,22.85
2017-03-14T09:28:23.527Z,22.83
2017-03-14T09:29:23.089Z,22.84
2017-03-14T09:30:23.034Z,22.8
2017-03-14T09:31:23.344Z,22.9
2017-03-14T09:32:23.293Z,22.8
2017-03-14T09:33:23.226Z,22.9
2017-03-14T09:34:23.155Z,22.98
2017-03-14T09:35:23.098Z,23
2017-03-14T09:36:23.038Z,23
2017-03-14T09:37:22.609Z,22.99
2017-03-14T09:38:22.522Z,23.02
2017-03-14T09:39:22.467Z,22.99
2017-03-14T09:40:22.788Z,23.03
2017-03-14T09:41:22.725Z,23.05
2017-03-14T09:42:22.274Z,23.03
2017-03-14T09:43:22.611Z,23
2017-03-14T09:44:22.539Z,23.05
2017-03-14T09:45:22.479Z,23.17
2017-03-14T09:46:22.418Z,23.08
2017-03-14T09:47:22.349Z,23.09
2017-03-14T09:48:22.289Z,23.13
2017-03-14T09:49:22.229Z,23.17
2017-03-14T09:50:21.779Z,23.13
2017-03-14T09:51:22.105Z,23.2
2017-03-14T09:52:22.071Z,23.15
2017-03-14T09:53:21.594Z,23.23
2017-03-14T09:54:21.921Z,23.2
2017-03-14T09:55:21.955Z,23.12
2017-03-14T09:56:21.411Z,23.23
2017-03-14T09:57:21.350Z,23.21
2017-03-14T09:58:21.667Z,23.27
2017-03-14T09:59:21.611Z,23.25
2017-03-14T10:00:21.547Z,23.34
2017-03-14T10:01:21.484Z,23.36
2017-03-14T10:02:21.431Z,23.36
2017-03-14T10:03:21.361Z,23.34
2017-03-14T10:04:21.306Z,23.37
2017-03-14T10:05:21.261Z,23.31
2017-03-14T10:06:21.178Z,23.25
2017-03-14T10:07:21.113Z,23.27
2017-03-14T10:08:21.054Z,23.21
2017-03-14T10:09:20.609Z,23.17
2017-03-14T10:10:20.935Z,23.15
2017-03-14T10:11:20.481Z,23.18
2017-03-14T10:12:20.807Z,23.24
2017-03-14T10:13:20.746Z,23.25
2017-03-14T10:14:20.682Z,23.25
2017-03-14T10:15:20.235Z,23.21
2017-03-14T10:16:20.561Z,23.28
2017-03-14T10:17:20.502Z,23.23
2017-03-14T10:18:20.436Z,23.21
2017-03-14T10:19:19.990Z,23.31
2017-03-14T10:20:19.925Z,23.39
2017-03-14T10:21:19.866Z,23.37
2017-03-14T10:22:20.022Z,23.32
2017-03-14T10:23:19.960Z,23.31
2017-03-14T10:24:19.293Z,23.23
2017-03-14T10:25:19.834Z,23.25
2017-03-14T10:26:19.475Z,23.34
2017-03-14T10:27:19.716Z,23.32
2017-03-14T10:28:19.655Z,23.4
2017-03-14T10:29:19.590Z,23.41
2017-03-14T10:30:19.530Z,23.43
2017-03-14T10:31:19.483Z,23.41
2017-03-14T10:32:19.412Z,23.37
2017-03-14T10:33:19.364Z,23.44
2017-03-14T10:34:19.284Z,23.43
2017-03-14T10:35:19.225Z,23.47
2017-03-14T10:36:19.160Z,23.48
2017-03-14T10:37:19.122Z,23.44
2017-03-14T10:38:19.042Z,23.48
2017-03-14T10:39:18.992Z,23.46
2017-03-14T10:40:18.925Z,23.54
2017-03-14T10:41:18.875Z,23.56
2017-03-14T10:42:18.848Z,23.5
2017-03-14T10:43:18.430Z,23.54
2017-03-14T10:44:18.665Z,23.55
2017-03-14T10:45:18.634Z,23.48
2017-03-14T10:46:18.553Z,23.5
2017-03-14T10:47:18.188Z,23.5
2017-03-14T10:48:18.421Z,23.48
2017-03-14T10:49:18.363Z,23.55
2017-03-14T10:50:18.303Z,23.59
2017-03-14T10:51:18.237Z,23.59
2017-03-14T10:52:18.172Z,23.62
2017-03-14T10:53:18.109Z,23.59
2017-03-14T10:54:18.054Z,23.59
2017-03-14T10:55:17.687Z,23.65
2017-03-14T10:56:17.625Z,23.65
2017-03-14T10:57:17.868Z,23.61
2017-03-14T10:58:17.805Z,23.62
2017-03-14T10:59:17.745Z,23.56
2017-03-14T11:00:17.380Z,23.55
2017-03-14T11:01:17.342Z,23.54
2017-03-14T11:02:17.565Z,23.48
2017-03-14T11:03:17.495Z,23.54
2017-03-14T11:04:17.144Z,23.48
2017-03-14T11:05:17.370Z,23.47
2017-03-14T11:06:17.310Z,23.54
2017-03-14T11:07:17.251Z,23.47
2017-03-14T11:08:17.189Z,23.48
2017-03-14T11:09:17.130Z,23.46
2017-03-14T11:10:16.764Z,23.48
2017-03-14T11:11:17.006Z,23.44
2017-03-14T11:12:16.646Z,23.47
2017-03-14T11:13:16.879Z,23.43
2017-03-14T11:14:16.819Z,23.47
2017-03-14T11:15:16.755Z,23.44
2017-03-14T11:16:16.698Z,23.44
2017-03-14T11:17:16.334Z,23.47
2017-03-14T11:18:16.571Z,23.43
2017-03-14T11:19:16.509Z,23.47
2017-03-14T11:20:16.459Z,23.34
2017-03-14T11:21:16.390Z,23.39
2017-03-14T11:22:16.326Z,23.44
2017-03-14T11:23:16.267Z,23.39
2017-03-14T11:24:15.904Z,23.27
2017-03-14T11:25:16.174Z,23.31
2017-03-14T11:26:16.081Z,23.36
2017-03-14T11:27:16.023Z,23.36
2017-03-14T11:28:15.957Z,23.34
2017-03-14T11:29:15.892Z,23.25
2017-03-14T11:30:15.832Z,23.27
2017-03-14T11:31:15.774Z,23.28
2017-03-14T11:32:15.714Z,23.4
2017-03-14T11:33:15.648Z,23.31
2017-03-14T11:34:14.982Z,23.32
2017-03-14T11:35:15.599Z,23.28
2017-03-14T11:36:15.477Z,23.39
2017-03-14T11:37:15.097Z,23.34
2017-03-14T11:38:15.039Z,23.28
2017-03-14T11:39:14.974Z,23.31
2017-03-14T11:40:15.215Z,23.39
2017-03-14T11:41:15.155Z,23.31
2017-03-14T11:42:15.097Z,23.23
2017-03-14T11:43:15.030Z,23.27
2017-03-14T11:44:14.968Z,23.39
2017-03-14T11:45:15.081Z,23.31
2017-03-14T11:46:14.846Z,23.31
2017-03-14T11:47:14.782Z,23.27
2017-03-14T11:48:14.936Z,23.31
2017-03-14T11:49:14.683Z,23.28
2017-03-14T11:50:14.848Z,23.28
2017-03-14T11:51:14.541Z,23.39
2017-03-14T11:52:14.479Z,23.25
2017-03-14T11:53:14.414Z,23.25
2017-03-14T11:54:14.052Z,23.25
2017-03-14T11:55:14.291Z,23.21
2017-03-14T11:56:14.229Z,23.24
2017-03-14T11:57:14.166Z,23.23
2017-03-14T11:58:14.102Z,23.2
2017-03-14T11:59:14.043Z,23.27
2017-03-14T12:00:13.987Z,23.34
2017-03-14T12:01:13.937Z,23.24
2017-03-14T12:02:13.866Z,23.24
2017-03-14T12:03:13.799Z,23.31
2017-03-14T12:04:13.434Z,23.27
2017-03-14T12:05:13.673Z,23.31
2017-03-14T12:06:13.614Z,23.34
2017-03-14T12:07:13.552Z,23.31
2017-03-14T12:08:13.488Z,23.31
2017-03-14T12:09:13.429Z,23.25
2017-03-14T12:10:13.366Z,23.39
2017-03-14T12:11:13.308Z,23.34
2017-03-14T12:12:13.243Z,23.34
2017-03-14T12:13:13.199Z,23.32
2017-03-14T12:14:12.817Z,23.31
2017-03-14T12:15:13.056Z,23.37
2017-03-14T12:16:12.690Z,23.43
2017-03-14T12:17:12.630Z,23.44
2017-03-14T12:18:12.878Z,23.43
2017-03-14T12:19:12.811Z,23.4
2017-03-14T12:20:12.450Z,23.46
2017-03-14T12:21:12.685Z,23.47
2017-03-14T12:22:12.322Z,23.43
2017-03-14T12:23:12.577Z,23.48
2017-03-14T12:24:11.908Z,23.41
2017-03-14T12:25:12.442Z,23.61
2017-03-14T12:26:12.385Z,23.47
2017-03-14T12:27:12.013Z,23.54
2017-03-14T12:28:11.953Z,23.51
2017-03-14T12:29:12.196Z,23.55
2017-03-14T12:30:12.136Z,23.48
2017-03-14T12:31:12.071Z,23.55
2017-03-14T12:32:12.010Z,23.48
2017-03-14T12:33:11.647Z,23.48
2017-03-14T12:34:11.897Z,23.58
2017-03-14T12:35:11.834Z,23.51
2017-03-14T12:36:11.158Z,23.54
2017-03-14T12:37:11.702Z,23.5
2017-03-14T12:38:11.644Z,23.63
2017-03-14T12:39:11.580Z,23.5
2017-03-14T12:40:11.518Z,23.56
2017-03-14T12:41:11.457Z,23.59
2017-03-14T12:42:11.395Z,23.63
2017-03-14T12:43:11.332Z,23.59
2017-03-14T12:44:11.272Z,23.58
2017-03-14T12:45:11.227Z,23.63
2017-03-14T12:46:11.154Z,23.56
2017-03-14T12:47:11.090Z,23.62
2017-03-14T12:48:11.032Z,23.59
2017-03-14T12:49:10.972Z,23.59
2017-03-14T12:50:10.903Z,23.68
2017-03-14T12:51:10.869Z,23.63
2017-03-14T12:52:10.781Z,23.61
2017-03-14T12:53:10.718Z,23.56
2017-03-14T12:54:10.659Z,23.59
2017-03-14T12:55:10.597Z,23.59
2017-03-14T12:56:10.538Z,23.62
2017-03-14T12:57:10.477Z,23.59